createdAt,value
2023-03-19T00:01:05.022Z,60.61
2023-03-19T00:03:42.895Z,60.85
2023-03-19T00:06:11.029Z,60.75
2023-03-19T00:08:39.084Z,60.82
2023-03-19T00:11:11.722Z,60.75
2023-03-19T00:13:40.873Z,60.71
2023-03-19T00:16:09.098Z,60.78
2023-03-19T00:18:37.434Z,60.74
2023-03-19T00:21:06.149Z,60.70
2023-03-19T00:23:34.939Z,60.86
2023-03-19T00:26:04.065Z,60.76
2023-03-19T00:28:32.361Z,60.63
2023-03-19T00:31:10.706Z,60.79
2023-03-19T00:33:39.265Z,60.91
2023-03-19T00:36:08.160Z,60.90
2023-03-19T00:38:36.777Z,61.18
2023-03-19T00:41:06.265Z,61.10
2023-03-19T00:43:34.915Z,60.94
2023-03-19T00:46:03.521Z,60.95
2023-03-19T00:48:32.058Z,60.95
2023-03-19T00:51:09.598Z,61.09
2023-03-19T00:53:42.987Z,61.22
2023-03-19T00:56:13.648Z,61.43
2023-03-19T00:58:42.129Z,61.64
2023-03-19T01:01:13.047Z,61.86
2023-03-19T01:03:42.008Z,62.22
2023-03-19T01:06:10.393Z,62.29
2023-03-19T01:08:38.893Z,62.68
2023-03-19T01:11:09.885Z,63.07
2023-03-19T01:13:38.922Z,63.01
2023-03-19T01:16:07.579Z,63.17
2023-03-19T01:18:35.879Z,63.50
2023-03-19T01:21:05.166Z,63.43
2023-03-19T01:23:38.779Z,63.30
2023-03-19T01:26:07.399Z,63.53
2023-03-19T01:28:35.979Z,63.45
2023-03-19T01:31:08.416Z,63.57
2023-03-19T01:34:06.624Z,63.45
2023-03-19T01:36:49.640Z,63.47
2023-03-19T01:39:24.089Z,63.40
2023-03-19T01:41:52.765Z,63.46
2023-03-19T01:44:37.599Z,63.66
2023-03-19T01:47:36.178Z,63.61
2023-03-19T01:50:43.776Z,63.48
2023-03-19T01:53:32.738Z,63.39
2023-03-19T01:56:20.274Z,63.36
2023-03-19T01:59:27.949Z,63.43
2023-03-19T02:02:31.717Z,63.56
2023-03-19T02:05:10.865Z,63.58
2023-03-19T02:07:42.637Z,63.65
2023-03-19T02:10:15.161Z,63.66
2023-03-19T02:12:45.009Z,63.77
2023-03-19T02:15:13.254Z,63.74
2023-03-19T02:17:42.808Z,63.83
2023-03-19T02:20:21.408Z,63.95
2023-03-19T02:23:06.017Z,64.32
2023-03-19T02:25:46.281Z,64.60
2023-03-19T02:28:17.514Z,64.66
2023-03-19T02:30:46.517Z,64.59
2023-03-19T02:36:17.405Z,64.55
2023-03-19T02:38:48.113Z,64.76
2023-03-19T02:41:16.234Z,64.93
2023-03-19T02:43:44.449Z,64.82
2023-03-19T02:46:13.928Z,64.85
2023-03-19T02:48:42.461Z,64.79
2023-03-19T02:51:10.768Z,64.85
2023-03-19T02:53:39.125Z,64.99
2023-03-19T02:56:07.570Z,65.07
2023-03-19T02:58:35.797Z,65.20
2023-03-19T03:01:04.538Z,65.27
2023-03-19T03:03:32.953Z,65.30
2023-03-19T03:06:01.123Z,65.48
2023-03-19T03:08:29.295Z,65.45
2023-03-19T03:10:57.758Z,65.54
2023-03-19T03:13:26.027Z,65.66
2023-03-19T03:15:54.123Z,65.85
2023-03-19T03:18:22.609Z,65.94
2023-03-19T03:20:50.938Z,66.06
2023-03-19T03:23:20.506Z,65.96
2023-03-19T03:25:52.968Z,66.15
2023-03-19T03:28:21.182Z,66.15
2023-03-19T03:30:49.290Z,66.30
2023-03-19T03:33:17.523Z,66.30
2023-03-19T03:35:46.485Z,66.44
2023-03-19T03:38:14.740Z,66.44
2023-03-19T03:40:43.572Z,66.43
2023-03-19T03:43:11.641Z,66.62
2023-03-19T03:45:39.837Z,66.65
2023-03-19T03:48:09.556Z,66.63
2023-03-19T03:50:37.699Z,66.66
2023-03-19T03:53:08.902Z,66.75
2023-03-19T03:55:37.405Z,66.80
2023-03-19T03:58:06.561Z,66.92
2023-03-19T04:05:20.501Z,66.76
2023-03-19T04:07:48.780Z,67.20
2023-03-19T04:10:17.076Z,67.43
2023-03-19T04:12:46.092Z,67.61
2023-03-19T04:15:14.558Z,67.70
2023-03-19T04:17:44.426Z,67.82
2023-03-19T04:20:14.403Z,67.88
2023-03-19T04:22:42.691Z,68.14
2023-03-19T04:25:11.406Z,68.07
2023-03-19T04:27:39.860Z,68.12
2023-03-19T04:34:37.600Z,68.18
2023-03-19T04:37:06.349Z,68.44
2023-03-19T04:39:36.160Z,68.50
2023-03-19T04:42:04.634Z,68.50
2023-03-19T04:44:37.743Z,68.46
2023-03-19T04:47:06.078Z,68.55
2023-03-19T04:49:42.762Z,68.62
2023-03-19T04:52:11.032Z,68.70
2023-03-19T04:54:39.194Z,68.67
2023-03-19T04:57:07.896Z,68.75
2023-03-19T04:59:38.569Z,68.86
2023-03-19T05:02:07.112Z,69.05
2023-03-19T05:04:37.517Z,69.08
2023-03-19T05:07:08.550Z,69.07
2023-03-19T05:09:37.974Z,69.15
2023-03-19T05:12:06.939Z,69.01
2023-03-19T05:14:39.780Z,69.07
2023-03-19T05:17:15.726Z,69.23
2023-03-19T05:20:07.301Z,69.29
2023-03-19T05:22:35.680Z,69.34
2023-03-19T05:25:04.296Z,69.48
2023-03-19T05:27:33.067Z,69.39
2023-03-19T05:30:11.039Z,68.84
2023-03-19T05:32:41.898Z,68.50
2023-03-19T05:35:15.506Z,68.92
2023-03-19T05:37:43.919Z,69.00
2023-03-19T05:40:13.404Z,69.06
2023-03-19T05:42:42.887Z,68.79
2023-03-19T05:45:12.784Z,68.40
2023-03-19T05:47:50.340Z,67.80
2023-03-19T05:50:19.054Z,66.70
2023-03-19T05:53:05.412Z,66.22
2023-03-19T05:55:34.836Z,66.05
2023-03-19T05:58:07.819Z,65.13
2023-03-19T06:00:36.919Z,64.35
2023-03-19T06:03:06.671Z,63.99
2023-03-19T06:05:42.992Z,63.83
2023-03-19T06:08:30.558Z,63.19
2023-03-19T06:11:19.227Z,62.35
2023-03-19T06:13:51.867Z,61.17
2023-03-19T06:16:21.074Z,59.79
2023-03-19T06:18:53.985Z,58.19
2023-03-19T06:21:22.290Z,56.95
2023-03-19T06:23:51.511Z,54.24
2023-03-19T06:26:26.566Z,53.65
2023-03-19T06:28:57.559Z,52.32
2023-03-19T06:31:27.696Z,52.02
2023-03-19T06:34:01.670Z,50.95
2023-03-19T06:36:39.886Z,50.77
2023-03-19T06:39:10.528Z,50.67
2023-03-19T06:41:38.749Z,52.02
2023-03-19T06:44:13.494Z,51.55
2023-03-19T06:46:42.279Z,47.71
2023-03-19T06:49:10.672Z,47.95
2023-03-19T06:51:38.772Z,50.73
2023-03-19T06:54:07.282Z,46.75
2023-03-19T06:56:35.513Z,47.19
2023-03-19T06:59:04.148Z,47.89
2023-03-19T07:01:32.928Z,47.79
2023-03-19T07:04:01.098Z,46.45
2023-03-19T07:06:30.223Z,46.97
2023-03-19T07:09:16.460Z,46.75
2023-03-19T07:11:51.048Z,47.20
2023-03-19T07:14:19.472Z,46.58
2023-03-19T07:16:47.641Z,46.12
2023-03-19T07:19:16.428Z,45.65
2023-03-19T07:21:44.819Z,45.64
2023-03-19T07:24:13.030Z,45.07
2023-03-19T07:26:42.497Z,45.03
2023-03-19T07:29:11.379Z,44.25
2023-03-19T07:31:39.946Z,44.44
2023-03-19T07:34:08.545Z,43.84
2023-03-19T07:36:37.052Z,43.14
2023-03-19T07:39:05.579Z,42.93
2023-03-19T07:41:33.619Z,39.49
2023-03-19T07:44:03.014Z,39.94
2023-03-19T07:46:32.540Z,39.59
2023-03-19T07:49:01.076Z,40.68
2023-03-19T07:51:29.415Z,41.26
2023-03-19T07:53:57.472Z,40.86
2023-03-19T07:56:25.955Z,40.47
2023-03-19T07:58:54.401Z,39.94
2023-03-19T08:01:22.513Z,39.87
2023-03-19T08:03:51.151Z,39.73
2023-03-19T08:06:22.039Z,39.00
2023-03-19T08:08:50.728Z,39.33
2023-03-19T08:11:19.726Z,39.34
2023-03-19T08:13:48.050Z,38.18
2023-03-19T08:16:16.006Z,39.90
2023-03-19T08:18:43.992Z,39.89
2023-03-19T08:21:12.330Z,39.80
2023-03-19T08:23:40.477Z,40.60
2023-03-19T08:26:08.426Z,40.48
2023-03-19T08:28:37.454Z,39.29
2023-03-19T08:31:13.124Z,38.51
2023-03-19T08:33:41.653Z,38.36
2023-03-19T08:36:12.252Z,38.27
2023-03-19T08:38:40.558Z,39.66
2023-03-19T08:41:09.751Z,40.54
2023-03-19T08:43:37.897Z,40.70
2023-03-19T08:46:06.646Z,40.88
2023-03-19T08:48:35.979Z,38.80
2023-03-19T08:51:04.227Z,39.93
2023-03-19T08:53:33.139Z,39.53
2023-03-19T08:56:02.222Z,38.97
2023-03-19T08:58:30.950Z,40.17
2023-03-19T09:01:08.900Z,38.15
2023-03-19T09:03:37.451Z,39.55
2023-03-19T09:06:07.203Z,38.99
2023-03-19T09:08:36.293Z,38.12
2023-03-19T09:11:05.928Z,35.43
2023-03-19T09:13:34.571Z,37.51
2023-03-19T09:16:02.835Z,38.69
2023-03-19T09:18:31.498Z,39.88
2023-03-19T09:20:59.980Z,39.74
2023-03-19T09:23:28.589Z,39.42
2023-03-19T09:25:57.072Z,39.94
2023-03-19T09:28:25.760Z,36.89
2023-03-19T09:30:54.434Z,38.79
2023-03-19T09:33:22.791Z,38.48
2023-03-19T09:35:53.867Z,39.06
2023-03-19T09:38:24.169Z,39.88
2023-03-19T09:40:59.737Z,38.35
2023-03-19T09:43:47.221Z,38.41
2023-03-19T09:46:23.827Z,38.93
2023-03-19T09:49:03.195Z,38.51
2023-03-19T09:51:43.694Z,41.32
2023-03-19T09:54:39.250Z,40.61
2023-03-19T09:57:10.036Z,40.91
2023-03-19T09:59:40.794Z,40.06
2023-03-19T10:02:41.955Z,39.42
2023-03-19T10:05:25.963Z,36.98
2023-03-19T10:08:19.811Z,38.07
2023-03-19T10:10:56.252Z,38.28
2023-03-19T10:13:30.413Z,38.85
2023-03-19T10:16:01.477Z,39.11
2023-03-19T10:18:36.180Z,36.45
2023-03-19T10:21:11.985Z,37.43
2023-03-19T10:23:46.989Z,37.36
2023-03-19T10:26:21.703Z,36.33
2023-03-19T10:29:20.751Z,35.72
2023-03-19T10:32:21.104Z,35.00
2023-03-19T10:34:53.317Z,33.82
2023-03-19T10:37:28.036Z,34.94
2023-03-19T10:40:00.096Z,34.39
2023-03-19T10:42:49.890Z,34.24
2023-03-19T10:45:30.119Z,35.57
2023-03-19T10:47:59.976Z,34.40
2023-03-19T10:51:01.604Z,36.04
2023-03-19T10:53:34.751Z,37.10
2023-03-19T10:56:26.804Z,36.04
2023-03-19T10:59:07.626Z,34.96
2023-03-19T11:04:34.630Z,37.11
2023-03-19T11:07:08.860Z,37.22
2023-03-19T11:09:38.007Z,37.37
2023-03-19T11:12:29.524Z,37.59
2023-03-19T11:14:58.383Z,37.67
2023-03-19T11:17:28.018Z,37.72
2023-03-19T11:19:57.926Z,37.61
2023-03-19T11:22:28.144Z,36.61
2023-03-19T11:25:13.897Z,35.09
2023-03-19T11:27:43.673Z,36.09
2023-03-19T11:30:18.143Z,36.47
2023-03-19T11:33:04.804Z,37.23
2023-03-19T11:35:36.079Z,36.82
2023-03-19T11:38:05.130Z,37.83
2023-03-19T11:40:52.728Z,38.27
2023-03-19T11:43:21.162Z,37.57
2023-03-19T11:45:52.290Z,36.34
2023-03-19T11:48:35.389Z,37.90
2023-03-19T11:51:12.624Z,38.81
2023-03-19T11:53:49.864Z,38.76
2023-03-19T11:56:23.271Z,38.57
2023-03-19T11:59:09.860Z,38.10
2023-03-19T12:01:47.025Z,38.66
2023-03-19T12:04:21.279Z,38.25
2023-03-19T12:07:08.110Z,36.38
2023-03-19T12:09:49.684Z,37.28
2023-03-19T12:12:17.675Z,37.79
2023-03-19T12:14:45.776Z,38.43
2023-03-19T12:17:22.774Z,38.77
2023-03-19T12:19:50.739Z,38.91
2023-03-19T12:22:37.106Z,39.03
2023-03-19T12:25:31.244Z,38.42
2023-03-19T12:28:05.226Z,38.34
2023-03-19T12:30:33.418Z,38.87
2023-03-19T12:33:11.074Z,38.28
2023-03-19T12:35:39.951Z,39.00
2023-03-19T12:38:19.606Z,38.90
2023-03-19T12:40:50.701Z,37.43
2023-03-19T12:43:22.045Z,35.68
2023-03-19T12:45:58.194Z,36.01
2023-03-19T12:48:28.860Z,36.33
2023-03-19T12:51:00.158Z,37.23
2023-03-19T12:53:36.338Z,36.77
2023-03-19T12:56:10.572Z,37.47
2023-03-19T12:58:47.870Z,37.76
2023-03-19T13:01:37.549Z,37.87
2023-03-19T13:04:14.674Z,38.06
2023-03-19T13:06:52.504Z,38.55
2023-03-19T13:09:27.073Z,38.36
2023-03-19T13:12:02.296Z,38.77
2023-03-19T13:14:45.398Z,38.93
2023-03-19T13:17:24.120Z,39.00
2023-03-19T13:19:57.124Z,38.87
2023-03-19T13:22:27.786Z,35.88
2023-03-19T13:24:57.381Z,35.82
2023-03-19T13:27:32.940Z,35.81
2023-03-19T13:30:07.494Z,37.12
2023-03-19T13:32:41.501Z,37.95
2023-03-19T13:35:24.483Z,36.87
2023-03-19T13:37:57.345Z,37.25
2023-03-19T13:40:46.138Z,38.06
2023-03-19T13:43:29.567Z,38.38
2023-03-19T13:46:11.965Z,37.52
2023-03-19T13:48:45.855Z,37.92
2023-03-19T13:51:19.905Z,38.40
2023-03-19T13:54:12.940Z,38.14
2023-03-19T13:57:01.356Z,38.45
2023-03-19T13:59:31.420Z,38.81
2023-03-19T14:02:00.499Z,38.96
2023-03-19T14:04:31.146Z,38.83
2023-03-19T14:07:19.361Z,38.03
2023-03-19T14:09:51.652Z,38.15
2023-03-19T14:12:20.239Z,38.42
2023-03-19T14:15:07.354Z,38.04
2023-03-19T14:17:42.760Z,38.74
2023-03-19T14:20:12.568Z,37.92
2023-03-19T14:22:40.865Z,37.51
2023-03-19T14:25:18.967Z,37.90
2023-03-19T14:27:48.289Z,38.12
2023-03-19T14:30:26.558Z,37.90
2023-03-19T14:32:55.940Z,38.77
2023-03-19T14:35:25.468Z,39.06
2023-03-19T14:37:54.322Z,39.16
2023-03-19T14:40:23.925Z,39.29
2023-03-19T14:42:57.992Z,39.33
2023-03-19T14:45:40.109Z,39.35
2023-03-19T14:48:38.458Z,39.41
2023-03-19T14:51:09.625Z,39.56
2023-03-19T14:53:41.736Z,39.54
2023-03-19T14:56:19.067Z,39.77
2023-03-19T14:58:51.164Z,39.92
2023-03-19T15:01:19.965Z,39.90
2023-03-19T15:03:53.250Z,40.02
2023-03-19T15:06:21.955Z,40.08
2023-03-19T15:08:50.218Z,40.07
2023-03-19T15:11:36.396Z,40.12
2023-03-19T15:14:04.417Z,40.20
2023-03-19T15:16:38.756Z,40.26
2023-03-19T15:19:11.212Z,40.31
2023-03-19T15:21:39.816Z,40.34
2023-03-19T15:24:14.775Z,40.40
2023-03-19T15:26:43.582Z,40.44
2023-03-19T15:29:13.598Z,40.53
2023-03-19T15:31:51.063Z,40.65
2023-03-19T15:34:23.087Z,40.84
2023-03-19T15:37:15.291Z,41.44
2023-03-19T15:39:49.136Z,41.42
2023-03-19T15:42:21.079Z,41.95
2023-03-19T15:44:55.529Z,42.40
2023-03-19T15:47:32.258Z,42.37
2023-03-19T15:50:12.651Z,42.41
2023-03-19T15:52:46.298Z,42.67
2023-03-19T15:55:16.769Z,43.54
2023-03-19T15:57:45.616Z,43.26
2023-03-19T16:00:18.229Z,42.95
2023-03-19T16:02:50.476Z,43.00
2023-03-19T16:05:30.926Z,43.22
2023-03-19T16:08:16.919Z,43.71
2023-03-19T16:10:47.566Z,43.84
2023-03-19T16:13:25.833Z,44.09
2023-03-19T16:16:00.947Z,44.24
2023-03-19T16:18:40.590Z,44.96
2023-03-19T16:21:34.030Z,44.39
2023-03-19T16:24:14.036Z,44.47
2023-03-19T16:26:46.847Z,44.56
2023-03-19T16:29:20.906Z,45.01
2023-03-19T16:31:52.655Z,45.16
2023-03-19T16:34:39.576Z,45.75
2023-03-19T16:37:41.089Z,45.83
2023-03-19T16:40:12.270Z,46.28
2023-03-19T16:42:56.075Z,48.12
2023-03-19T16:45:31.691Z,48.75
2023-03-19T16:48:03.501Z,48.73
2023-03-19T16:50:40.373Z,48.81
2023-03-19T16:53:22.414Z,49.13
2023-03-19T16:55:54.199Z,49.37
2023-03-19T16:58:31.927Z,49.82
2023-03-19T17:01:01.287Z,50.00
2023-03-19T17:03:30.364Z,50.33
2023-03-19T17:05:58.724Z,50.62
2023-03-19T17:08:26.924Z,50.95
2023-03-19T17:10:55.663Z,51.53
2023-03-19T17:13:30.186Z,51.80
2023-03-19T17:16:02.869Z,52.41
2023-03-19T17:18:36.629Z,52.78
2023-03-19T17:21:16.013Z,53.37
2023-03-19T17:23:44.334Z,53.75
2023-03-19T17:26:17.424Z,54.28
2023-03-19T17:28:46.343Z,54.51
2023-03-19T17:31:28.811Z,55.01
2023-03-19T17:34:16.781Z,55.35
2023-03-19T17:36:51.405Z,56.00
2023-03-19T17:39:20.002Z,56.77
2023-03-19T17:41:48.383Z,57.33
2023-03-19T17:44:16.597Z,58.03
2023-03-19T17:46:47.562Z,59.29
2023-03-19T17:49:29.158Z,59.61
2023-03-19T17:51:58.130Z,60.01
2023-03-19T17:54:27.335Z,61.01
2023-03-19T17:56:56.244Z,61.25
2023-03-19T17:59:25.944Z,61.36
2023-03-19T18:01:54.154Z,61.42
2023-03-19T18:04:22.826Z,61.68
2023-03-19T18:06:56.120Z,61.78
2023-03-19T18:09:28.702Z,62.35
2023-03-19T18:11:57.842Z,62.65
2023-03-19T18:14:26.134Z,62.53
2023-03-19T18:16:56.115Z,62.67
2023-03-19T18:19:33.648Z,62.79
2023-03-19T18:22:02.146Z,62.93
2023-03-19T18:24:30.385Z,63.03
2023-03-19T18:26:58.361Z,62.87
2023-03-19T18:29:26.425Z,63.21
2023-03-19T18:31:54.879Z,64.29
2023-03-19T18:34:23.090Z,64.67
2023-03-19T18:36:52.204Z,64.84
2023-03-19T18:39:21.498Z,64.92
2023-03-19T18:41:49.776Z,64.86
2023-03-19T18:44:19.254Z,64.84
2023-03-19T18:46:47.377Z,65.14
2023-03-19T18:49:26.770Z,65.59
2023-03-19T18:52:02.664Z,65.65
2023-03-19T18:54:32.538Z,65.79
2023-03-19T18:57:02.030Z,66.05
2023-03-19T18:59:33.248Z,66.18
2023-03-19T19:04:36.594Z,66.23
2023-03-19T19:07:05.075Z,66.66
2023-03-19T19:09:33.323Z,66.86
2023-03-19T19:12:02.252Z,67.08
2023-03-19T19:14:30.898Z,67.26
2023-03-19T19:16:59.490Z,67.45
2023-03-19T19:19:27.931Z,67.62
2023-03-19T19:21:56.105Z,67.76
2023-03-19T19:24:24.520Z,68.13
2023-03-19T19:26:54.528Z,68.43
2023-03-19T19:29:28.571Z,69.37
2023-03-19T19:31:57.252Z,69.69
2023-03-19T19:34:25.304Z,69.81
2023-03-19T19:36:57.734Z,69.76
2023-03-19T19:39:27.115Z,69.61
2023-03-19T19:41:56.224Z,69.56
2023-03-19T19:44:24.349Z,70.07
2023-03-19T19:46:54.731Z,69.91
2023-03-19T19:49:23.295Z,69.88
2023-03-19T19:51:51.481Z,70.17
2023-03-19T19:54:19.484Z,69.75
2023-03-19T19:56:47.692Z,69.82
2023-03-19T19:59:16.193Z,70.23
2023-03-19T20:01:44.516Z,70.88
2023-03-19T20:04:14.821Z,71.16
2023-03-19T20:06:43.145Z,71.04
2023-03-19T20:09:11.299Z,70.54
2023-03-19T20:11:39.605Z,70.18
2023-03-19T20:14:12.241Z,70.39
2023-03-19T20:16:40.365Z,70.17
2023-03-19T20:19:19.478Z,70.43
2023-03-19T20:21:47.866Z,70.57
2023-03-19T20:24:15.873Z,70.34
2023-03-19T20:26:44.007Z,70.28
2023-03-19T20:29:16.172Z,70.12
2023-03-19T20:31:46.017Z,70.64
2023-03-19T20:34:22.516Z,71.48
2023-03-19T20:36:54.105Z,71.85
2023-03-19T20:39:22.534Z,71.88
2023-03-19T20:41:51.702Z,71.75
2023-03-19T20:44:22.682Z,71.68
2023-03-19T20:46:50.884Z,71.71
2023-03-19T20:49:19.047Z,71.66
2023-03-19T20:51:47.046Z,71.62
2023-03-19T20:54:15.036Z,72.74
2023-03-19T20:56:45.927Z,73.93
2023-03-19T20:59:15.499Z,74.77
2023-03-19T21:01:43.761Z,74.79
2023-03-19T21:04:18.922Z,74.75
2023-03-19T21:06:53.451Z,74.80
2023-03-19T21:09:24.075Z,74.79
2023-03-19T21:11:52.987Z,75.13
2023-03-19T21:14:23.454Z,74.81
2023-03-19T21:16:51.902Z,74.52
2023-03-19T21:19:20.272Z,74.49
2023-03-19T21:21:48.490Z,74.41
2023-03-19T21:24:20.517Z,74.20
2023-03-19T21:26:48.815Z,74.14
2023-03-19T21:29:34.788Z,74.05
2023-03-19T21:32:02.782Z,74.22
2023-03-19T21:34:31.116Z,74.55
2023-03-19T21:36:59.280Z,74.67
2023-03-19T21:39:27.403Z,74.95
2023-03-19T21:41:57.189Z,76.14
2023-03-19T21:44:29.685Z,76.99
2023-03-19T21:46:58.063Z,77.77
2023-03-19T21:49:26.422Z,78.18
2023-03-19T21:51:57.027Z,78.21
2023-03-19T21:54:25.048Z,77.74
2023-03-19T21:56:53.485Z,77.19
2023-03-19T21:59:29.484Z,76.63
2023-03-19T22:01:57.889Z,76.35
2023-03-19T22:04:25.886Z,76.64
2023-03-19T22:06:54.496Z,76.90
2023-03-19T22:09:22.756Z,77.20
2023-03-19T22:11:50.914Z,77.13
2023-03-19T22:14:26.972Z,77.00
2023-03-19T22:16:57.080Z,77.12
2023-03-19T22:19:25.876Z,77.09
2023-03-19T22:21:54.101Z,77.23
2023-03-19T22:24:22.217Z,77.47
2023-03-19T22:26:56.419Z,77.84
2023-03-19T22:29:25.652Z,78.23
2023-03-19T22:31:56.139Z,78.87
2023-03-19T22:34:27.715Z,79.32
2023-03-19T22:36:56.740Z,79.42
2023-03-19T22:39:24.843Z,79.35
2023-03-19T22:41:53.108Z,78.88
2023-03-19T22:44:28.100Z,78.51
2023-03-19T22:46:59.582Z,78.30
2023-03-19T22:49:29.866Z,78.21
2023-03-19T22:51:58.710Z,78.13
2023-03-19T22:54:26.821Z,78.42
2023-03-19T22:56:55.302Z,78.55
2023-03-19T22:59:23.641Z,78.43
2023-03-19T23:01:52.088Z,78.38
2023-03-19T23:04:23.160Z,78.48
2023-03-19T23:06:53.524Z,78.24
2023-03-19T23:09:24.184Z,78.21
2023-03-19T23:11:53.666Z,78.09
2023-03-19T23:14:29.590Z,78.30
2023-03-19T23:17:15.700Z,78.53
2023-03-19T23:19:43.907Z,78.48
2023-03-19T23:22:16.588Z,78.44
2023-03-19T23:24:44.857Z,78.89
2023-03-19T23:27:31.168Z,79.39
2023-03-19T23:30:00.997Z,79.09
2023-03-19T23:32:29.102Z,79.02
2023-03-19T23:35:01.454Z,78.96
2023-03-19T23:37:56.514Z,78.90
2023-03-19T23:40:30.109Z,78.61
2023-03-19T23:43:00.207Z,78.59
2023-03-19T23:45:38.406Z,78.63
2023-03-19T23:48:13.933Z,78.58
2023-03-19T23:50:42.148Z,78.70
2023-03-19T23:53:18.754Z,78.65
2023-03-19T23:55:49.597Z,78.58
2023-03-19T23:58:18.623Z,78.78
